createdAt,value
2023-01-01T00:00:16.601Z,76.51
2023-01-01T00:03:21.669Z,77.00
2023-01-01T00:06:25.184Z,76.90
2023-01-01T00:09:45.303Z,77.16
2023-01-01T00:12:48.071Z,77.26
2023-01-01T00:15:52.080Z,77.09
2023-01-01T00:19:07.053Z,76.99
2023-01-01T00:22:52.145Z,77.17
2023-01-01T00:25:36.485Z,77.33
2023-01-01T00:28:39.465Z,77.88
2023-01-01T00:31:43.580Z,77.88
2023-01-01T00:34:46.275Z,77.77
2023-01-01T00:37:49.014Z,77.90
2023-01-01T00:40:51.664Z,78.41
2023-01-01T00:43:54.365Z,78.45
2023-01-01T00:46:58.383Z,78.56
2023-01-01T00:50:13.361Z,78.77
2023-01-01T00:53:16.266Z,78.41
2023-01-01T00:56:18.970Z,78.46
2023-01-01T00:59:26.891Z,78.30
2023-01-01T01:02:32.900Z,78.60
2023-01-01T01:05:37.320Z,78.28
2023-01-01T01:08:44.865Z,78.40
2023-01-01T01:11:47.834Z,77.95
2023-01-01T01:14:50.531Z,77.82
2023-01-01T01:17:54.555Z,77.58
2023-01-01T01:21:07.476Z,77.08
2023-01-01T01:24:10.953Z,77.28
2023-01-01T01:27:20.853Z,77.10
2023-01-01T01:30:23.586Z,77.28
2023-01-01T01:33:27.756Z,77.46
2023-01-01T01:36:30.826Z,77.51
2023-01-01T01:39:36.384Z,77.72
2023-01-01T01:42:39.101Z,77.48
2023-01-01T01:45:45.017Z,78.00
2023-01-01T01:48:52.400Z,78.20
2023-01-01T01:51:58.047Z,78.29
2023-01-01T01:55:02.578Z,78.38
2023-01-01T01:58:06.773Z,78.49
2023-01-01T02:01:10.013Z,78.59
2023-01-01T02:04:18.063Z,78.66
2023-01-01T02:07:22.947Z,78.62
2023-01-01T02:10:34.130Z,78.68
2023-01-01T02:13:36.798Z,78.76
2023-01-01T02:16:47.576Z,79.12
2023-01-01T02:20:09.705Z,78.90
2023-01-01T02:23:44.706Z,79.17
2023-01-01T02:27:02.236Z,78.92
2023-01-01T02:30:12.275Z,79.16
2023-01-01T02:33:19.657Z,79.13
2023-01-01T02:36:31.116Z,79.24
2023-01-01T02:39:36.221Z,79.55
2023-01-01T02:42:39.083Z,79.37
2023-01-01T02:45:43.354Z,79.39
2023-01-01T02:48:48.001Z,79.50
2023-01-01T02:52:12.916Z,80.03
2023-01-01T02:55:28.724Z,79.70
2023-01-01T02:58:58.348Z,79.83
2023-01-01T03:02:10.864Z,79.96
2023-01-01T03:05:22.061Z,79.62
2023-01-01T03:08:42.013Z,79.66
2023-01-01T03:11:51.820Z,79.93
2023-01-01T03:15:02.168Z,79.74
2023-01-01T03:18:09.396Z,79.38
2023-01-01T03:24:27.098Z,79.20
2023-01-01T03:27:37.688Z,79.14
2023-01-01T03:30:42.829Z,79.12
2023-01-01T03:34:01.064Z,78.90
2023-01-01T03:37:16.868Z,79.16
2023-01-01T03:40:22.196Z,79.22
2023-01-01T03:43:40.681Z,79.00
2023-01-01T03:46:43.513Z,79.09
2023-01-01T03:49:48.301Z,78.83
2023-01-01T03:52:58.535Z,79.42
2023-01-01T03:56:09.278Z,79.28
2023-01-01T03:59:18.692Z,79.51
2023-01-01T04:02:34.045Z,79.87
2023-01-01T04:05:41.727Z,79.75
2023-01-01T04:08:44.438Z,79.60
2023-01-01T04:12:07.444Z,79.67
2023-01-01T04:15:10.745Z,79.54
2023-01-01T04:18:13.393Z,79.77
2023-01-01T04:21:23.420Z,80.06
2023-01-01T04:24:26.973Z,80.19
2023-01-01T04:27:29.783Z,79.90
2023-01-01T04:30:32.757Z,79.89
2023-01-01T04:33:37.935Z,79.66
2023-01-01T04:36:44.535Z,79.40
2023-01-01T04:39:47.275Z,79.25
2023-01-01T04:43:05.316Z,79.12
2023-01-01T04:46:08.039Z,79.31
2023-01-01T04:49:13.747Z,79.20
2023-01-01T04:52:17.755Z,78.69
2023-01-01T04:55:23.462Z,78.30
2023-01-01T04:58:26.106Z,78.07
2023-01-01T05:01:30.183Z,77.06
2023-01-01T05:04:33.385Z,76.06
2023-01-01T05:07:40.468Z,75.73
2023-01-01T05:10:43.842Z,74.47
2023-01-01T05:13:49.450Z,73.60
2023-01-01T05:16:57.960Z,73.35
2023-01-01T05:20:03.832Z,73.36
2023-01-01T05:23:09.161Z,72.67
2023-01-01T05:26:12.877Z,72.52
2023-01-01T05:29:17.243Z,72.34
2023-01-01T05:32:26.219Z,71.95
2023-01-01T05:35:28.894Z,71.65
2023-01-01T05:38:36.237Z,71.43
2023-01-01T05:41:41.247Z,70.94
2023-01-01T05:44:43.875Z,70.28
2023-01-01T05:47:46.894Z,70.44
2023-01-01T05:50:49.552Z,69.89
2023-01-01T05:53:54.794Z,69.93
2023-01-01T05:57:05.848Z,70.02
2023-01-01T06:00:16.879Z,69.78
2023-01-01T06:03:19.734Z,69.57
2023-01-01T06:06:25.017Z,69.17
2023-01-01T06:09:34.501Z,69.00
2023-01-01T06:12:41.780Z,68.64
2023-01-01T06:15:44.986Z,68.68
2023-01-01T06:18:47.731Z,68.75
2023-01-01T06:21:50.482Z,69.12
2023-01-01T06:24:54.436Z,69.22
2023-01-01T06:28:00.202Z,69.05
2023-01-01T06:31:04.147Z,69.04
2023-01-01T06:34:10.164Z,69.43
2023-01-01T06:37:12.776Z,69.34
2023-01-01T06:40:16.889Z,68.87
2023-01-01T06:43:19.531Z,69.04
2023-01-01T06:46:26.906Z,69.27
2023-01-01T06:49:31.851Z,69.26
2023-01-01T06:52:37.520Z,69.32
2023-01-01T06:55:54.936Z,69.29
2023-01-01T06:59:02.555Z,69.04
2023-01-01T07:02:05.349Z,69.32
2023-01-01T07:05:08.967Z,69.40
2023-01-01T07:08:18.410Z,69.66
2023-01-01T07:11:22.777Z,69.64
2023-01-01T07:14:25.456Z,69.24
2023-01-01T07:17:28.307Z,69.65
2023-01-01T07:20:30.998Z,69.83
2023-01-01T07:23:36.163Z,69.87
2023-01-01T07:26:41.051Z,70.26
2023-01-01T07:29:46.121Z,70.55
2023-01-01T07:32:48.763Z,70.44
2023-01-01T07:35:51.531Z,70.71
2023-01-01T07:38:54.195Z,70.53
2023-01-01T07:41:58.086Z,70.86
2023-01-01T07:45:08.307Z,70.89
2023-01-01T07:48:15.545Z,71.19
2023-01-01T07:51:18.266Z,71.28
2023-01-01T07:54:20.913Z,71.31
2023-01-01T07:57:24.870Z,71.84
2023-01-01T08:00:30.100Z,71.69
2023-01-01T08:03:32.823Z,72.04
2023-01-01T08:06:38.588Z,72.00
2023-01-01T08:09:41.568Z,72.11
2023-01-01T08:12:45.512Z,71.85
2023-01-01T08:15:48.166Z,71.93
2023-01-01T08:18:53.965Z,71.85
2023-01-01T08:21:56.983Z,71.64
2023-01-01T08:24:59.653Z,71.58
2023-01-01T08:28:03.661Z,71.77
2023-01-01T08:31:06.666Z,71.19
2023-01-01T08:34:09.420Z,71.00
2023-01-01T08:37:14.502Z,70.54
2023-01-01T08:40:17.124Z,70.76
2023-01-01T08:43:21.159Z,70.82
2023-01-01T08:46:23.907Z,70.78
2023-01-01T08:49:27.620Z,70.33
2023-01-01T08:52:30.364Z,70.23
2023-01-01T08:55:38.284Z,70.04
2023-01-01T08:58:43.119Z,69.61
2023-01-01T09:01:49.026Z,69.58
2023-01-01T09:04:53.980Z,69.40
2023-01-01T09:07:56.669Z,69.02
2023-01-01T09:11:00.570Z,68.92
2023-01-01T09:14:20.018Z,68.71
2023-01-01T09:17:22.694Z,68.96
2023-01-01T09:20:28.829Z,68.51
2023-01-01T09:23:31.494Z,68.74
2023-01-01T09:26:34.370Z,68.58
2023-01-01T09:29:38.313Z,68.66
2023-01-01T09:32:41.041Z,68.01
2023-01-01T09:35:44.504Z,67.78
2023-01-01T09:38:52.455Z,67.45
2023-01-01T09:42:10.956Z,67.18
2023-01-01T09:45:23.340Z,66.89
2023-01-01T09:48:27.430Z,66.74
2023-01-01T09:51:34.802Z,66.32
2023-01-01T09:54:40.879Z,66.67
2023-01-01T09:57:43.681Z,66.37
2023-01-01T10:00:53.710Z,65.97
2023-01-01T10:04:08.363Z,65.87
2023-01-01T10:07:19.162Z,65.11
2023-01-01T10:10:33.471Z,65.54
2023-01-01T10:13:40.728Z,64.49
2023-01-01T10:16:48.186Z,64.62
2023-01-01T10:19:53.235Z,64.28
2023-01-01T10:23:00.752Z,64.06
2023-01-01T10:26:09.551Z,63.60
2023-01-01T10:29:17.659Z,63.55
2023-01-01T10:32:27.724Z,63.71
2023-01-01T10:35:42.843Z,63.71
2023-01-01T10:38:45.981Z,63.44
2023-01-01T10:41:49.225Z,63.32
2023-01-01T10:44:53.578Z,63.46
2023-01-01T10:48:15.166Z,63.95
2023-01-01T10:51:20.440Z,63.50
2023-01-01T10:54:32.660Z,63.21
2023-01-01T10:57:40.389Z,63.46
2023-01-01T11:00:43.238Z,62.70
2023-01-01T11:04:01.538Z,62.38
2023-01-01T11:07:08.266Z,62.22
2023-01-01T11:10:18.713Z,62.52
2023-01-01T11:13:22.660Z,61.60
2023-01-01T11:16:26.728Z,61.30
2023-01-01T11:19:33.637Z,61.46
2023-01-01T11:22:39.349Z,61.36
2023-01-01T11:25:58.158Z,61.62
2023-01-01T11:29:03.439Z,60.53
2023-01-01T11:32:08.879Z,59.07
2023-01-01T11:35:20.219Z,59.51
2023-01-01T11:38:29.898Z,59.57
2023-01-01T11:41:43.201Z,59.69
2023-01-01T11:44:48.693Z,59.05
2023-01-01T11:47:56.657Z,58.92
2023-01-01T11:51:03.637Z,58.22
2023-01-01T11:54:13.143Z,57.85
2023-01-01T11:57:23.092Z,58.07
2023-01-01T12:00:25.980Z,58.39
2023-01-01T12:03:34.331Z,58.14
2023-01-01T12:06:46.329Z,58.64
2023-01-01T12:09:57.533Z,58.25
2023-01-01T12:13:05.609Z,58.24
2023-01-01T12:16:13.632Z,58.14
2023-01-01T12:19:23.631Z,58.20
2023-01-01T12:22:27.960Z,58.41
2023-01-01T12:25:37.224Z,58.52
2023-01-01T12:28:49.138Z,58.02
2023-01-01T12:32:04.476Z,58.13
2023-01-01T12:35:23.745Z,58.06
2023-01-01T12:38:43.224Z,58.80
2023-01-01T12:41:55.021Z,58.99
2023-01-01T12:45:14.485Z,59.08
2023-01-01T12:48:34.822Z,58.90
2023-01-01T12:51:48.295Z,58.83
2023-01-01T12:55:35.679Z,59.12
2023-01-01T12:58:44.835Z,58.58
2023-01-01T13:01:49.228Z,58.26
2023-01-01T13:04:56.324Z,57.60
2023-01-01T13:08:04.244Z,58.27
2023-01-01T13:11:08.803Z,58.29
2023-01-01T13:14:13.282Z,58.55
2023-01-01T13:17:21.648Z,58.75
2023-01-01T13:20:26.560Z,58.29
2023-01-01T13:24:03.841Z,58.63
2023-01-01T13:27:11.257Z,58.12
2023-01-01T13:30:47.747Z,58.02
2023-01-01T13:34:20.327Z,58.78
2023-01-01T13:37:45.168Z,58.21
2023-01-01T13:40:52.695Z,57.82
2023-01-01T13:44:13.809Z,57.96
2023-01-01T13:47:34.274Z,58.38
2023-01-01T13:50:46.205Z,58.58
2023-01-01T13:54:08.215Z,58.55
2023-01-01T13:57:32.776Z,59.18
2023-01-01T14:00:46.542Z,58.92
2023-01-01T14:03:57.471Z,58.85
2023-01-01T14:07:32.869Z,58.84
2023-01-01T14:10:33.217Z,59.30
2023-01-01T14:13:41.829Z,59.44
2023-01-01T14:16:44.588Z,59.33
2023-01-01T14:19:48.739Z,59.18
2023-01-01T14:22:53.707Z,58.96
2023-01-01T14:25:56.530Z,58.73
2023-01-01T14:29:01.125Z,58.99
2023-01-01T14:32:14.964Z,59.35
2023-01-01T14:35:19.033Z,59.04
2023-01-01T14:38:27.157Z,59.55
2023-01-01T14:41:32.289Z,59.53
2023-01-01T14:44:37.616Z,59.57
2023-01-01T14:47:40.324Z,59.89
2023-01-01T14:50:49.069Z,60.10
2023-01-01T14:53:53.978Z,60.05
2023-01-01T14:56:56.854Z,60.29
2023-01-01T14:59:59.784Z,60.35
2023-01-01T15:03:13.908Z,61.00
2023-01-01T15:06:18.759Z,60.67
2023-01-01T15:09:21.554Z,60.77
2023-01-01T15:12:24.886Z,61.13
2023-01-01T15:15:42.516Z,61.44
2023-01-01T15:18:46.998Z,61.38
2023-01-01T15:21:51.088Z,61.97
2023-01-01T15:24:54.903Z,62.30
2023-01-01T15:27:58.025Z,62.75
2023-01-01T15:31:00.960Z,63.66
2023-01-01T15:34:04.871Z,64.11
2023-01-01T15:37:15.718Z,64.43
2023-01-01T15:40:40.539Z,64.59
2023-01-01T15:43:43.208Z,64.97
2023-01-01T15:46:48.348Z,65.78
2023-01-01T15:49:51.087Z,65.86
2023-01-01T15:52:59.076Z,66.21
2023-01-01T15:56:04.864Z,66.47
2023-01-01T15:59:22.995Z,66.82
2023-01-01T16:02:31.234Z,66.90
2023-01-01T16:05:34.061Z,67.27
2023-01-01T16:08:38.314Z,68.06
2023-01-01T16:11:41.139Z,68.45
2023-01-01T16:14:43.831Z,69.47
2023-01-01T16:17:47.249Z,70.12
2023-01-01T16:20:50.059Z,70.30
2023-01-01T16:23:54.466Z,70.38
2023-01-01T16:26:57.370Z,70.50
2023-01-01T16:30:00.148Z,70.72
2023-01-01T16:33:16.446Z,71.67
2023-01-01T16:36:19.226Z,72.00
2023-01-01T16:39:23.362Z,72.02
2023-01-01T16:42:27.293Z,72.34
2023-01-01T16:45:29.983Z,72.03
2023-01-01T16:48:32.612Z,72.40
2023-01-01T16:51:35.564Z,72.39
2023-01-01T16:54:40.215Z,73.29
2023-01-01T16:57:43.478Z,73.28
2023-01-01T17:00:47.390Z,73.84
2023-01-01T17:03:50.655Z,73.95
2023-01-01T17:06:53.967Z,74.18
2023-01-01T17:09:58.132Z,74.42
2023-01-01T17:13:02.923Z,74.97
2023-01-01T17:16:06.220Z,75.57
2023-01-01T17:19:15.073Z,75.46
2023-01-01T17:22:21.272Z,75.31
2023-01-01T17:25:25.378Z,75.69
2023-01-01T17:28:28.168Z,75.86
2023-01-01T17:31:31.227Z,76.11
2023-01-01T17:34:33.979Z,76.13
2023-01-01T17:37:39.884Z,76.84
2023-01-01T17:40:46.247Z,76.90
2023-01-01T17:43:50.677Z,77.04
2023-01-01T17:46:55.298Z,77.25
2023-01-01T17:49:58.013Z,77.69
2023-01-01T17:53:00.717Z,78.12
2023-01-01T17:56:05.572Z,78.32
2023-01-01T17:59:09.392Z,79.16
2023-01-01T18:02:13.275Z,79.53
2023-01-01T18:05:15.991Z,79.81
2023-01-01T18:08:28.047Z,79.78
2023-01-01T18:11:33.884Z,80.17
2023-01-01T18:14:38.867Z,80.06
2023-01-01T18:17:41.509Z,80.59
2023-01-01T18:20:46.413Z,80.54
2023-01-01T18:23:50.423Z,81.12
2023-01-01T18:26:57.148Z,81.16
2023-01-01T18:30:02.612Z,80.75
2023-01-01T18:33:06.033Z,80.89
2023-01-01T18:36:10.406Z,80.81
2023-01-01T18:39:16.881Z,80.44
2023-01-01T18:42:35.572Z,80.39
2023-01-01T18:45:39.075Z,80.20
2023-01-01T18:48:43.052Z,80.71
2023-01-01T18:51:48.941Z,80.37
2023-01-01T18:55:12.909Z,80.56
2023-01-01T18:58:19.900Z,80.44
2023-01-01T19:01:24.452Z,80.77
2023-01-01T19:04:27.365Z,80.59
2023-01-01T19:07:37.391Z,80.75
2023-01-01T19:10:41.758Z,80.86
2023-01-01T19:13:45.957Z,81.03
2023-01-01T19:16:50.282Z,81.83
2023-01-01T19:19:53.371Z,81.79
2023-01-01T19:22:57.539Z,81.83
2023-01-01T19:26:03.932Z,82.09
2023-01-01T19:29:13.987Z,82.39
2023-01-01T19:32:17.106Z,82.54
2023-01-01T19:35:19.931Z,82.50
2023-01-01T19:38:23.030Z,82.78
2023-01-01T19:41:26.064Z,83.48
2023-01-01T19:44:32.519Z,83.68
2023-01-01T19:47:38.200Z,84.03
2023-01-01T19:50:40.876Z,84.69
2023-01-01T19:53:43.580Z,84.36
2023-01-01T19:56:47.396Z,84.47
2023-01-01T19:59:51.450Z,84.36
2023-01-01T20:02:54.753Z,84.36
2023-01-01T20:05:57.827Z,84.68
2023-01-01T20:09:00.501Z,84.51
2023-01-01T20:12:03.884Z,84.88
2023-01-01T20:15:09.012Z,85.63
2023-01-01T20:18:12.117Z,85.50
2023-01-01T20:21:32.313Z,85.72
2023-01-01T20:24:35.015Z,85.73
2023-01-01T20:27:58.215Z,86.16
2023-01-01T20:31:02.255Z,86.32
2023-01-01T20:34:04.897Z,86.63
2023-01-01T20:37:25.144Z,86.68
2023-01-01T20:40:27.761Z,86.78
2023-01-01T20:43:30.572Z,86.39
2023-01-01T20:46:36.052Z,86.94
2023-01-01T20:49:39.041Z,86.91
2023-01-01T20:52:41.673Z,87.97
2023-01-01T20:55:44.483Z,88.03
2023-01-01T20:58:50.168Z,87.57
2023-01-01T21:01:56.353Z,87.67
2023-01-01T21:04:59.082Z,87.12
2023-01-01T21:08:02.158Z,87.86
2023-01-01T21:11:05.266Z,87.49
2023-01-01T21:14:07.973Z,87.78
2023-01-01T21:17:22.045Z,87.80
2023-01-01T21:20:26.747Z,88.32
2023-01-01T21:23:30.908Z,89.17
2023-01-01T21:26:36.981Z,89.35
2023-01-01T21:29:44.967Z,89.77
2023-01-01T21:32:50.658Z,89.40
2023-01-01T21:35:53.507Z,89.32
2023-01-01T21:38:57.441Z,89.02
2023-01-01T21:42:10.348Z,89.54
2023-01-01T21:45:19.974Z,89.52
2023-01-01T21:48:29.835Z,89.57
2023-01-01T21:51:34.354Z,90.16
2023-01-01T21:54:39.505Z,90.62
2023-01-01T21:57:42.465Z,90.70
2023-01-01T22:00:45.179Z,90.77
2023-01-01T22:03:59.179Z,91.27
2023-01-01T22:07:30.783Z,91.39
2023-01-01T22:10:35.239Z,91.84
2023-01-01T22:13:37.938Z,91.98
2023-01-01T22:16:40.723Z,92.13
2023-01-01T22:19:46.130Z,92.44
2023-01-01T22:22:49.281Z,93.12
2023-01-01T22:25:53.323Z,93.10
2023-01-01T22:29:00.889Z,93.04
2023-01-01T22:32:13.724Z,93.40
2023-01-01T22:35:26.768Z,92.99
2023-01-01T22:38:33.946Z,92.90
2023-01-01T22:41:36.630Z,92.81
2023-01-01T22:44:39.361Z,93.11
2023-01-01T22:47:44.600Z,92.85
2023-01-01T22:50:49.377Z,93.01
2023-01-01T22:53:51.987Z,93.07
2023-01-01T22:56:54.639Z,92.91
2023-01-01T23:00:04.234Z,93.00
2023-01-01T23:03:09.119Z,92.95
2023-01-01T23:06:13.683Z,93.35
2023-01-01T23:09:16.515Z,93.13
2023-01-01T23:12:19.179Z,93.55
2023-01-01T23:15:39.296Z,92.67
2023-01-01T23:18:42.066Z,92.14
2023-01-01T23:21:46.571Z,92.70
2023-01-01T23:24:52.072Z,92.99
2023-01-01T23:27:55.647Z,92.75
2023-01-01T23:30:59.628Z,92.40
2023-01-01T23:34:02.679Z,93.06
2023-01-01T23:37:06.836Z,92.66
2023-01-01T23:40:12.825Z,93.23
2023-01-01T23:43:15.506Z,93.76
2023-01-01T23:46:19.632Z,93.65
2023-01-01T23:49:23.361Z,93.95
2023-01-01T23:52:27.573Z,94.05
2023-01-01T23:55:30.209Z,93.92
2023-01-01T23:58:32.875Z,93.81
